createdAt,value
2023-03-27T00:01:30.637Z,10.10
2023-03-27T00:03:58.686Z,7.00
2023-03-27T00:06:27.251Z,2.88
2023-03-27T00:08:54.981Z,7.70
2023-03-27T00:11:25.108Z,3.45
2023-03-27T00:13:56.172Z,4.88
2023-03-27T00:16:27.000Z,3.78
2023-03-27T00:18:55.614Z,8.10
2023-03-27T00:21:24.168Z,3.90
2023-03-27T00:23:52.365Z,3.20
2023-03-27T00:26:22.074Z,4.45
2023-03-27T00:28:49.855Z,2.63
2023-03-27T00:31:17.994Z,2.03
2023-03-27T00:33:45.990Z,3.30
2023-03-27T00:36:15.353Z,0.90
2023-03-27T00:38:43.856Z,3.05
2023-03-27T00:41:12.713Z,2.58
2023-03-27T00:43:43.960Z,3.13
2023-03-27T00:46:27.870Z,6.95
2023-03-27T00:48:57.236Z,6.35
2023-03-27T00:51:27.690Z,4.45
2023-03-27T00:53:56.188Z,2.60
2023-03-27T00:56:25.098Z,2.60
2023-03-27T00:59:04.029Z,7.75
2023-03-27T01:01:32.244Z,6.38
2023-03-27T01:04:02.889Z,3.97
2023-03-27T01:06:31.470Z,4.53
2023-03-27T01:09:00.221Z,5.72
2023-03-27T01:11:52.933Z,11.18
2023-03-27T01:14:26.734Z,5.95
2023-03-27T01:17:37.263Z,4.43
2023-03-27T01:21:05.898Z,7.30
2023-03-27T01:23:59.059Z,3.50
2023-03-27T01:26:44.433Z,4.35
2023-03-27T01:29:41.179Z,6.25
2023-03-27T01:32:19.550Z,9.23
2023-03-27T01:35:02.067Z,8.52
2023-03-27T01:37:57.107Z,8.20
2023-03-27T01:40:37.187Z,5.50
2023-03-27T01:43:58.203Z,6.13
2023-03-27T01:46:41.845Z,4.10
2023-03-27T01:49:21.352Z,8.05
2023-03-27T01:52:20.436Z,3.85
2023-03-27T01:54:55.753Z,5.65
2023-03-27T01:57:36.881Z,10.40
2023-03-27T02:00:22.433Z,8.07
2023-03-27T02:02:54.403Z,6.32
2023-03-27T02:05:37.075Z,5.60
2023-03-27T02:08:17.249Z,4.63
2023-03-27T02:10:54.041Z,3.55
2023-03-27T02:13:39.061Z,8.18
2023-03-27T02:16:12.063Z,6.30
2023-03-27T02:18:48.489Z,9.57
2023-03-27T02:21:16.819Z,2.58
2023-03-27T02:23:45.250Z,12.32
2023-03-27T02:26:14.182Z,3.42
2023-03-27T02:29:00.201Z,5.10
2023-03-27T02:31:32.114Z,4.93
2023-03-27T02:34:33.694Z,6.65
2023-03-27T02:37:51.271Z,10.40
2023-03-27T02:40:40.637Z,4.88
2023-03-27T02:43:54.738Z,3.08
2023-03-27T02:47:02.068Z,4.10
2023-03-27T02:49:38.649Z,3.40
2023-03-27T02:52:32.027Z,4.10
2023-03-27T02:55:10.437Z,3.55
2023-03-27T02:57:52.424Z,7.97
2023-03-27T03:00:30.887Z,2.97
2023-03-27T03:06:11.410Z,2.50
2023-03-27T03:08:39.430Z,3.90
2023-03-27T03:11:14.296Z,2.03
2023-03-27T03:13:42.211Z,5.55
2023-03-27T03:16:10.515Z,4.57
2023-03-27T03:18:38.245Z,3.38
2023-03-27T03:21:06.222Z,4.00
2023-03-27T03:23:34.695Z,3.88
2023-03-27T03:26:03.432Z,4.18
2023-03-27T03:29:01.393Z,3.25
2023-03-27T03:31:43.739Z,4.63
2023-03-27T03:34:16.572Z,5.07
2023-03-27T03:36:49.435Z,4.45
2023-03-27T03:39:23.010Z,2.75
2023-03-27T03:41:51.442Z,2.35
2023-03-27T03:44:19.860Z,7.45
2023-03-27T03:46:48.077Z,5.88
2023-03-27T03:49:21.772Z,5.68
2023-03-27T03:52:03.398Z,2.95
2023-03-27T03:54:33.172Z,2.67
2023-03-27T03:57:01.101Z,4.25
2023-03-27T03:59:30.110Z,4.07
2023-03-27T04:02:30.278Z,3.88
2023-03-27T04:05:08.705Z,7.38
2023-03-27T04:07:40.069Z,5.85
2023-03-27T04:10:40.955Z,7.03
2023-03-27T04:13:18.513Z,4.65
2023-03-27T04:16:08.121Z,9.20
2023-03-27T04:18:41.459Z,7.10
2023-03-27T04:21:17.641Z,3.90
2023-03-27T04:23:48.507Z,8.82
2023-03-27T04:26:27.217Z,4.47
2023-03-27T04:29:15.085Z,6.40
2023-03-27T04:32:01.131Z,5.20
2023-03-27T04:34:41.895Z,5.68
2023-03-27T04:37:28.728Z,2.70
2023-03-27T04:40:14.680Z,4.53
2023-03-27T04:42:45.111Z,3.88
2023-03-27T04:45:17.371Z,3.08
2023-03-27T04:47:49.058Z,5.70
2023-03-27T04:50:17.993Z,5.70
2023-03-27T04:52:49.721Z,6.65
2023-03-27T04:55:19.725Z,2.83
2023-03-27T04:57:50.417Z,3.65
2023-03-27T05:00:20.208Z,4.55
2023-03-27T05:02:48.982Z,1.50
2023-03-27T05:05:27.216Z,3.63
2023-03-27T05:07:55.768Z,2.75
2023-03-27T05:10:25.699Z,4.90
2023-03-27T05:12:56.522Z,1.75
2023-03-27T05:15:25.745Z,6.35
2023-03-27T05:17:55.941Z,4.50
2023-03-27T05:20:26.075Z,2.10
2023-03-27T05:22:56.230Z,7.70
2023-03-27T05:25:29.390Z,6.78
2023-03-27T05:27:58.169Z,8.25
2023-03-27T05:30:29.938Z,3.25
2023-03-27T05:33:36.069Z,3.88
2023-03-27T05:36:06.056Z,6.65
2023-03-27T05:38:36.480Z,3.47
2023-03-27T05:41:11.708Z,2.42
2023-03-27T05:43:45.278Z,2.97
2023-03-27T05:46:14.567Z,3.53
2023-03-27T05:49:02.523Z,6.35
2023-03-27T05:51:31.568Z,1.30
2023-03-27T05:53:59.413Z,1.33
2023-03-27T05:56:43.708Z,2.38
2023-03-27T05:59:13.025Z,4.53
2023-03-27T06:01:42.704Z,5.28
2023-03-27T06:04:11.090Z,4.40
2023-03-27T06:07:02.498Z,1.02
2023-03-27T06:09:32.632Z,2.10
2023-03-27T06:12:18.881Z,3.42
2023-03-27T06:14:47.789Z,4.90
2023-03-27T06:17:31.137Z,5.43
2023-03-27T06:20:11.983Z,4.63
2023-03-27T06:22:50.363Z,8.15
2023-03-27T06:25:23.721Z,4.68
2023-03-27T06:27:51.665Z,4.47
2023-03-27T06:30:23.487Z,3.40
2023-03-27T06:33:12.131Z,7.93
2023-03-27T06:35:39.929Z,2.13
2023-03-27T06:40:46.479Z,3.38
2023-03-27T06:43:18.187Z,2.67
2023-03-27T06:51:07.552Z,4.03
2023-03-27T06:53:37.862Z,7.50
2023-03-27T06:56:07.382Z,7.95
2023-03-27T06:58:54.987Z,3.67
2023-03-27T07:01:27.686Z,7.95
2023-03-27T07:04:21.742Z,0.63
2023-03-27T07:06:55.447Z,5.32
2023-03-27T07:09:23.578Z,3.42
2023-03-27T07:12:04.671Z,5.72
2023-03-27T07:14:32.772Z,7.57
2023-03-27T07:17:01.046Z,2.13
2023-03-27T07:19:46.548Z,6.43
2023-03-27T07:22:15.675Z,8.30
2023-03-27T07:24:43.459Z,3.60
2023-03-27T07:27:12.075Z,3.65
2023-03-27T07:29:40.999Z,5.25
2023-03-27T07:32:22.302Z,1.45
2023-03-27T07:34:58.005Z,6.93
2023-03-27T07:37:31.941Z,8.68
2023-03-27T07:40:29.475Z,2.65
2023-03-27T07:43:23.882Z,3.83
2023-03-27T07:45:51.735Z,5.25
2023-03-27T07:48:19.658Z,6.88
2023-03-27T07:50:48.276Z,9.13
2023-03-27T07:53:33.843Z,5.15
2023-03-27T07:56:11.576Z,11.15
2023-03-27T07:58:40.949Z,6.30
2023-03-27T08:01:08.717Z,5.88
2023-03-27T08:03:39.089Z,9.32
2023-03-27T08:06:07.635Z,8.55
2023-03-27T08:08:35.732Z,9.45
2023-03-27T08:11:05.629Z,4.30
2023-03-27T08:13:39.735Z,1.77
2023-03-27T08:16:13.304Z,4.70
2023-03-27T08:18:42.897Z,4.75
2023-03-27T08:21:12.652Z,3.83
2023-03-27T08:23:41.170Z,1.65
2023-03-27T08:26:09.274Z,1.80
2023-03-27T08:28:47.411Z,3.25
2023-03-27T08:31:16.616Z,2.90
2023-03-27T08:33:46.549Z,2.53
2023-03-27T08:38:49.446Z,3.25
2023-03-27T08:41:33.784Z,1.58
2023-03-27T08:44:20.487Z,4.45
2023-03-27T08:46:56.170Z,6.55
2023-03-27T08:49:31.344Z,4.68
2023-03-27T08:52:29.204Z,5.90
2023-03-27T08:55:19.851Z,5.03
2023-03-27T08:57:56.945Z,5.60
2023-03-27T09:00:35.929Z,5.30
2023-03-27T09:03:22.429Z,8.73
2023-03-27T09:06:03.970Z,5.00
2023-03-27T09:09:31.369Z,5.40
2023-03-27T09:12:19.404Z,2.88
2023-03-27T09:15:16.281Z,4.93
2023-03-27T09:18:02.142Z,8.13
2023-03-27T09:20:45.290Z,10.50
2023-03-27T09:23:43.621Z,10.93
2023-03-27T09:26:35.889Z,5.33
2023-03-27T09:29:26.824Z,13.55
2023-03-27T09:32:04.262Z,6.80
2023-03-27T09:34:33.507Z,8.82
2023-03-27T09:37:02.457Z,7.53
2023-03-27T09:39:33.976Z,12.23
2023-03-27T09:42:25.841Z,8.32
2023-03-27T09:44:57.338Z,9.63
2023-03-27T09:47:38.563Z,13.98
2023-03-27T09:50:47.179Z,5.00
2023-03-27T09:53:32.416Z,6.07
2023-03-27T09:56:16.262Z,5.77
2023-03-27T09:58:49.612Z,10.18
2023-03-27T10:01:34.552Z,6.68
2023-03-27T10:04:21.029Z,3.70
2023-03-27T10:07:10.189Z,6.22
2023-03-27T10:10:25.015Z,4.93
2023-03-27T10:13:10.961Z,9.13
2023-03-27T10:15:48.220Z,3.97
2023-03-27T10:18:30.354Z,7.75
2023-03-27T10:21:16.282Z,7.75
2023-03-27T10:23:49.848Z,5.55
2023-03-27T10:29:40.461Z,6.97
2023-03-27T10:32:13.878Z,13.90
2023-03-27T10:34:58.464Z,8.25
2023-03-27T10:37:50.054Z,4.82
2023-03-27T10:40:50.521Z,7.70
2023-03-27T10:43:39.897Z,9.35
2023-03-27T10:46:15.982Z,7.22
2023-03-27T10:49:20.802Z,12.45
2023-03-27T10:52:24.276Z,11.98
2023-03-27T10:55:15.902Z,7.10
2023-03-27T10:57:54.116Z,4.30
2023-03-27T11:00:43.457Z,11.88
2023-03-27T11:03:53.115Z,4.63
2023-03-27T11:06:27.310Z,7.97
2023-03-27T11:09:23.176Z,7.60
2023-03-27T11:12:12.100Z,7.72
2023-03-27T11:15:22.323Z,9.02
2023-03-27T11:18:03.572Z,2.72
2023-03-27T11:20:56.657Z,4.82
2023-03-27T11:23:47.354Z,5.90
2023-03-27T11:26:34.204Z,8.05
2023-03-27T11:29:36.980Z,4.85
2023-03-27T11:32:53.996Z,6.22
2023-03-27T11:35:25.046Z,9.00
2023-03-27T11:38:37.704Z,9.90
2023-03-27T11:41:14.728Z,8.30
2023-03-27T11:43:43.827Z,11.32
2023-03-27T11:47:19.699Z,5.45
2023-03-27T11:50:18.924Z,2.95
2023-03-27T11:53:06.228Z,4.47
2023-03-27T11:56:14.846Z,7.75
2023-03-27T11:59:01.573Z,6.88
2023-03-27T12:02:18.496Z,4.35
2023-03-27T12:04:57.118Z,5.18
2023-03-27T12:07:59.413Z,10.68
2023-03-27T12:10:35.431Z,8.75
2023-03-27T12:13:41.884Z,4.22
2023-03-27T12:16:48.349Z,4.65
2023-03-27T12:20:00.917Z,9.68
2023-03-27T12:23:12.629Z,15.38
2023-03-27T12:26:31.086Z,11.10
2023-03-27T12:29:44.061Z,6.15
2023-03-27T12:32:26.720Z,8.68
2023-03-27T12:34:59.799Z,5.78
2023-03-27T12:38:28.067Z,6.80
2023-03-27T12:41:35.960Z,7.03
2023-03-27T12:44:14.978Z,9.75
2023-03-27T12:47:14.468Z,10.07
2023-03-27T12:49:48.209Z,10.23
2023-03-27T12:52:28.610Z,7.15
2023-03-27T12:55:05.814Z,9.80
2023-03-27T12:57:52.385Z,9.43
2023-03-27T13:00:37.657Z,8.05
2023-03-27T13:03:51.760Z,3.47
2023-03-27T13:06:31.625Z,4.38
2023-03-27T13:09:53.067Z,3.97
2023-03-27T13:12:58.704Z,6.03
2023-03-27T13:15:50.481Z,3.90
2023-03-27T13:19:03.629Z,6.07
2023-03-27T13:21:53.303Z,3.50
2023-03-27T13:24:32.918Z,5.05
2023-03-27T13:27:06.845Z,3.53
2023-03-27T13:29:37.655Z,4.47
2023-03-27T13:32:37.823Z,6.50
2023-03-27T13:35:33.964Z,8.40
2023-03-27T13:38:02.569Z,3.38
2023-03-27T13:40:49.316Z,4.85
2023-03-27T13:43:28.023Z,8.75
2023-03-27T13:46:16.318Z,5.90
2023-03-27T13:49:08.599Z,4.90
2023-03-27T13:51:59.618Z,4.15
2023-03-27T13:54:55.699Z,7.15
2023-03-27T13:58:08.637Z,4.85
2023-03-27T14:00:59.048Z,6.38
2023-03-27T14:04:13.764Z,3.50
2023-03-27T14:07:16.059Z,7.35
2023-03-27T14:10:19.214Z,2.78
2023-03-27T14:13:03.097Z,9.10
2023-03-27T14:16:23.257Z,6.45
2023-03-27T14:19:28.466Z,4.30
2023-03-27T14:22:11.163Z,3.25
2023-03-27T14:25:13.167Z,5.97
2023-03-27T14:27:54.168Z,9.57
2023-03-27T14:30:26.903Z,10.70
2023-03-27T14:33:11.233Z,6.97
2023-03-27T14:35:44.437Z,5.05
2023-03-27T14:38:25.304Z,6.05
2023-03-27T14:41:00.544Z,4.88
2023-03-27T14:43:53.869Z,4.82
2023-03-27T14:46:24.180Z,3.47
2023-03-27T14:48:58.180Z,3.38
2023-03-27T14:51:37.246Z,2.83
2023-03-27T14:54:26.561Z,2.70
2023-03-27T14:57:02.326Z,3.13
2023-03-27T14:59:42.928Z,8.68
2023-03-27T15:02:34.854Z,6.65
2023-03-27T15:05:15.066Z,2.83
2023-03-27T15:07:49.060Z,4.25
2023-03-27T15:10:29.918Z,2.90
2023-03-27T15:13:37.011Z,6.45
2023-03-27T15:16:16.928Z,4.82
2023-03-27T15:22:01.279Z,2.50
2023-03-27T15:24:51.888Z,4.40
2023-03-27T15:27:35.283Z,5.18
2023-03-27T15:30:25.513Z,4.15
2023-03-27T15:32:57.005Z,7.90
2023-03-27T15:35:42.456Z,3.88
2023-03-27T15:38:15.804Z,4.85
2023-03-27T15:40:46.698Z,6.38
2023-03-27T15:43:14.503Z,7.72
2023-03-27T15:45:57.311Z,5.45
2023-03-27T15:48:40.708Z,3.60
2023-03-27T15:51:30.255Z,7.40
2023-03-27T15:53:58.213Z,7.95
2023-03-27T15:56:42.346Z,3.65
2023-03-27T15:59:13.565Z,6.75
2023-03-27T16:01:54.862Z,6.65
2023-03-27T16:04:39.143Z,4.00
2023-03-27T16:07:42.542Z,4.90
2023-03-27T16:10:12.474Z,3.17
2023-03-27T16:12:43.257Z,7.15
2023-03-27T16:15:40.638Z,8.48
2023-03-27T16:18:23.512Z,5.25
2023-03-27T16:20:51.249Z,7.53
2023-03-27T16:23:18.932Z,7.93
2023-03-27T16:25:46.618Z,3.28
2023-03-27T16:28:14.799Z,1.95
2023-03-27T16:30:42.687Z,2.95
2023-03-27T16:33:16.793Z,7.75
2023-03-27T16:35:45.719Z,3.17
2023-03-27T16:38:14.325Z,3.25
2023-03-27T16:40:43.684Z,6.53
2023-03-27T16:43:11.436Z,4.53
2023-03-27T16:45:39.413Z,5.63
2023-03-27T16:48:08.351Z,4.55
2023-03-27T16:50:36.454Z,4.85
2023-03-27T16:53:04.146Z,6.00
2023-03-27T16:55:31.866Z,7.65
2023-03-27T16:57:59.600Z,7.30
2023-03-27T17:00:27.369Z,5.95
2023-03-27T17:02:56.008Z,3.67
2023-03-27T17:05:24.547Z,5.07
2023-03-27T17:07:52.500Z,3.22
2023-03-27T17:10:20.252Z,3.95
2023-03-27T17:12:47.877Z,7.38
2023-03-27T17:15:16.775Z,4.30
2023-03-27T17:17:45.382Z,4.55
2023-03-27T17:20:13.447Z,2.83
2023-03-27T17:22:42.341Z,4.45
2023-03-27T17:25:10.459Z,7.57
2023-03-27T17:27:38.998Z,5.40
2023-03-27T17:30:07.737Z,10.15
2023-03-27T17:32:35.425Z,3.60
2023-03-27T17:35:04.548Z,5.13
2023-03-27T17:37:32.294Z,6.38
2023-03-27T17:40:00.708Z,5.75
2023-03-27T17:42:28.503Z,5.28
2023-03-27T17:44:56.124Z,5.18
2023-03-27T17:47:23.791Z,8.13
2023-03-27T17:49:53.232Z,5.07
2023-03-27T17:52:23.434Z,2.85
2023-03-27T17:54:51.459Z,5.38
2023-03-27T17:57:19.697Z,5.60
2023-03-27T17:59:47.452Z,5.93
2023-03-27T18:02:20.901Z,3.67
2023-03-27T18:04:52.142Z,9.73
2023-03-27T18:07:21.267Z,7.53
2023-03-27T18:09:49.472Z,6.07
2023-03-27T18:12:17.680Z,5.25
2023-03-27T18:14:46.849Z,6.90
2023-03-27T18:17:15.937Z,8.38
2023-03-27T18:19:43.715Z,4.88
2023-03-27T18:22:11.887Z,6.35
2023-03-27T18:24:40.338Z,10.18
2023-03-27T18:27:08.168Z,3.75
2023-03-27T18:29:36.257Z,5.80
2023-03-27T18:32:05.078Z,7.95
2023-03-27T18:34:32.856Z,4.05
2023-03-27T18:37:01.024Z,4.05
2023-03-27T18:39:28.849Z,8.73
2023-03-27T18:42:01.490Z,11.20
2023-03-27T18:44:29.381Z,4.45
2023-03-27T18:46:57.303Z,6.97
2023-03-27T18:49:25.662Z,6.78
2023-03-27T18:51:53.557Z,7.18
2023-03-27T18:54:21.328Z,4.40
2023-03-27T18:56:49.376Z,7.60
2023-03-27T18:59:17.187Z,3.30
2023-03-27T19:01:44.959Z,4.13
2023-03-27T19:04:13.988Z,5.72
2023-03-27T19:06:43.098Z,3.95
2023-03-27T19:09:10.865Z,7.35
2023-03-27T19:11:39.769Z,5.88
2023-03-27T19:14:28.049Z,11.82
2023-03-27T19:17:16.674Z,3.83
2023-03-27T19:20:03.590Z,6.75
2023-03-27T19:22:54.376Z,3.92
2023-03-27T19:25:35.395Z,3.08
2023-03-27T19:28:05.397Z,5.97
2023-03-27T19:30:33.829Z,4.68
2023-03-27T19:33:02.394Z,3.33
2023-03-27T19:35:30.482Z,8.25
2023-03-27T19:37:59.043Z,8.82
2023-03-27T19:40:26.903Z,7.25
2023-03-27T19:42:54.833Z,3.83
2023-03-27T19:45:22.683Z,6.38
2023-03-27T19:47:50.473Z,8.77
2023-03-27T19:50:18.395Z,9.23
2023-03-27T19:52:57.328Z,12.00
2023-03-27T19:55:29.383Z,5.28
2023-03-27T19:57:57.018Z,5.88
2023-03-27T20:00:25.940Z,12.23
2023-03-27T20:02:53.833Z,5.13
2023-03-27T20:05:22.220Z,10.70
2023-03-27T20:07:49.901Z,5.03
2023-03-27T20:10:17.826Z,11.95
2023-03-27T20:12:45.512Z,12.48
2023-03-27T20:15:13.172Z,6.78
2023-03-27T20:17:44.352Z,9.70
2023-03-27T20:20:12.258Z,14.73
2023-03-27T20:22:54.383Z,5.95
2023-03-27T20:25:25.418Z,4.35
2023-03-27T20:27:53.128Z,6.50
2023-03-27T20:30:20.947Z,6.43
2023-03-27T20:32:50.959Z,6.13
2023-03-27T20:35:24.329Z,7.57
2023-03-27T20:37:56.174Z,11.50
2023-03-27T20:40:26.294Z,9.45
2023-03-27T20:43:03.139Z,7.15
2023-03-27T20:45:31.509Z,11.05
2023-03-27T20:48:05.418Z,10.73
2023-03-27T20:50:35.085Z,13.95
2023-03-27T20:53:04.521Z,12.20
2023-03-27T20:55:39.195Z,12.38
2023-03-27T20:58:13.651Z,7.55
2023-03-27T21:00:43.706Z,6.85
2023-03-27T21:03:12.250Z,11.32
2023-03-27T21:05:41.417Z,9.65
2023-03-27T21:08:09.239Z,9.18
2023-03-27T21:10:38.650Z,16.23
2023-03-27T21:13:06.730Z,11.23
2023-03-27T21:15:34.700Z,9.48
2023-03-27T21:18:02.779Z,13.23
2023-03-27T21:20:31.770Z,10.77
2023-03-27T21:23:00.960Z,12.35
2023-03-27T21:25:28.729Z,15.45
2023-03-27T21:28:03.112Z,13.07
2023-03-27T21:30:47.000Z,15.45
2023-03-27T21:33:20.187Z,12.35
2023-03-27T21:35:49.850Z,10.52
2023-03-27T21:38:18.948Z,11.80
2023-03-27T21:40:47.639Z,12.77
2023-03-27T21:43:16.167Z,10.43
2023-03-27T21:45:44.372Z,16.35
2023-03-27T21:48:12.164Z,13.57
2023-03-27T21:50:39.844Z,12.82
2023-03-27T21:53:07.504Z,14.13
2023-03-27T21:55:35.832Z,11.70
2023-03-27T21:58:05.740Z,11.82
2023-03-27T22:00:34.102Z,11.55
2023-03-27T22:03:01.946Z,11.57
2023-03-27T22:05:29.713Z,13.18
2023-03-27T22:07:57.766Z,12.32
2023-03-27T22:10:25.806Z,10.90
2023-03-27T22:12:53.459Z,11.68
2023-03-27T22:15:21.152Z,16.23
2023-03-27T22:17:49.113Z,10.98
2023-03-27T22:20:17.129Z,10.20
2023-03-27T22:22:44.842Z,7.53
2023-03-27T22:25:12.557Z,12.90
2023-03-27T22:27:40.444Z,9.52
2023-03-27T22:30:09.264Z,9.05
2023-03-27T22:32:36.936Z,8.95
2023-03-27T22:35:05.029Z,9.57
2023-03-27T22:37:39.325Z,13.93
2023-03-27T22:40:08.447Z,14.93
2023-03-27T22:42:36.851Z,12.57
2023-03-27T22:45:06.699Z,14.13
2023-03-27T22:47:35.577Z,15.82
2023-03-27T22:50:04.932Z,11.25
2023-03-27T22:52:32.777Z,11.70
2023-03-27T22:55:00.632Z,10.63
2023-03-27T22:57:28.329Z,10.30
2023-03-27T22:59:56.046Z,16.13
2023-03-27T23:02:24.228Z,11.68
2023-03-27T23:04:51.937Z,9.35
2023-03-27T23:07:19.681Z,15.10
2023-03-27T23:09:47.308Z,13.23
2023-03-27T23:12:15.047Z,13.88
2023-03-27T23:14:42.726Z,15.93
2023-03-27T23:17:10.500Z,13.00
2023-03-27T23:19:38.177Z,15.98
2023-03-27T23:22:06.164Z,15.60
2023-03-27T23:24:33.831Z,12.35
2023-03-27T23:27:01.461Z,14.65
2023-03-27T23:29:29.117Z,16.20
2023-03-27T23:31:57.004Z,24.08
2023-03-27T23:34:24.754Z,14.48
2023-03-27T23:36:52.435Z,14.85
2023-03-27T23:39:20.326Z,14.43
2023-03-27T23:41:48.325Z,15.43
2023-03-27T23:44:16.108Z,11.82
2023-03-27T23:46:43.718Z,14.43
2023-03-27T23:49:13.315Z,16.30
2023-03-27T23:51:41.051Z,14.85
2023-03-27T23:54:08.781Z,12.40
2023-03-27T23:56:36.508Z,12.98
2023-03-27T23:59:04.651Z,13.30
